Time;durP1;ratioP1;P1;durP2;ratioP2;P2;SDS_P1;SDS_P2;PMS_P1;PMS_P2;Temp;Humidity;BMP_temperature;BMP_pressure;BME280_temperature;BME280_humidity;BME280_pressure;Samples;Min_cycle;Max_cycle;Signal;HPM_P1;HPM_P2
2023/03/06 00:02:11;;;;;;;13.70;9.15;;;;;;;;;;5034312;28;20056;-77
2023/03/06 00:04:37;;;;;;;13.90;10.15;;;;;;;;;;5053059;28;20025;-77
2023/03/06 00:07:03;;;;;;;12.13;9.68;;;;;;;;;;5053011;28;20090;-75
2023/03/06 00:09:29;;;;;;;14.07;11.52;;;;;;;;;;5052590;28;20072;-76
2023/03/06 00:11:55;;;;;;;14.80;12.20;;;;;;;;;;5035211;28;20067;-75
2023/03/06 00:14:21;;;;;;;11.13;9.07;;;;;;;;;;5035192;28;20037;-76
2023/03/06 00:16:47;;;;;;;11.93;9.32;;;;;;;;;;5034805;28;20059;-74
2023/03/06 00:19:14;;;;;;;10.90;8.95;;;;;;;;;;5034255;28;20048;-75
2023/03/06 00:21:40;;;;;;;11.82;9.15;;;;;;;;;;5052833;28;20029;-77
2023/03/06 00:24:06;;;;;;;9.13;7.93;;;;;;;;;;5053131;28;20177;-76
2023/03/06 00:26:33;;;;;;;14.85;9.80;;;;;;;;;;5052649;28;20079;-76
2023/03/06 00:28:59;;;;;;;17.92;12.60;;;;;;;;;;5052047;28;20045;-76
2023/03/06 00:31:26;;;;;;;12.90;9.43;;;;;;;;;;5052766;28;20029;-76
2023/03/06 00:33:52;;;;;;;9.52;8.25;;;;;;;;;;5053177;28;20501;-76
2023/03/06 00:36:18;;;;;;;10.82;8.88;;;;;;;;;;5052666;28;20048;-75
2023/03/06 00:38:44;;;;;;;12.43;9.38;;;;;;;;;;5034339;28;20136;-76
2023/03/06 00:41:10;;;;;;;14.10;10.02;;;;;;;;;;5052433;28;20041;-77
2023/03/06 00:43:37;;;;;;;9.57;8.18;;;;;;;;;;5052581;28;20044;-78
2023/03/06 00:46:04;;;;;;;11.57;8.00;;;;;;;;;;5052164;28;20428;-76
2023/03/06 00:48:31;;;;;;;8.95;7.78;;;;;;;;;;5051492;28;20037;-75
2023/03/06 00:50:57;;;;;;;5.32;4.57;;;;;;;;;;5034178;28;20564;-77
2023/03/06 00:53:23;;;;;;;9.18;6.72;;;;;;;;;;5051418;28;20593;-76
2023/03/06 00:55:49;;;;;;;7.55;6.78;;;;;;;;;;5051546;28;20452;-76
2023/03/06 00:58:15;;;;;;;8.57;5.82;;;;;;;;;;5051611;28;20047;-76
2023/03/06 01:00:41;;;;;;;5.10;4.57;;;;;;;;;;5068065;28;20533;-75
2023/03/06 01:03:07;;;;;;;8.57;5.18;;;;;;;;;;5071797;28;20123;-76
2023/03/06 01:05:34;;;;;;;6.88;5.70;;;;;;;;;;5072134;28;20165;-76
2023/03/06 01:08:01;;;;;;;5.68;5.13;;;;;;;;;;5037658;28;20048;-78
2023/03/06 01:10:27;;;;;;;6.70;5.13;;;;;;;;;;5054445;28;20033;-75
2023/03/06 01:12:53;;;;;;;10.40;6.93;;;;;;;;;;5072056;28;20574;-75
2023/03/06 01:15:19;;;;;;;9.52;6.80;;;;;;;;;;5055386;28;20036;-76
2023/03/06 01:17:45;;;;;;;7.15;6.53;;;;;;;;;;5039868;28;20038;-75
2023/03/06 01:20:11;;;;;;;7.90;7.10;;;;;;;;;;5072625;28;20024;-76
2023/03/06 01:22:41;;;;;;;8.32;5.45;;;;;;;;;;5075862;28;20086;-76
2023/03/06 01:25:07;;;;;;;8.68;7.07;;;;;;;;;;5080936;28;20123;-76
2023/03/06 01:27:33;;;;;;;8.10;5.70;;;;;;;;;;5078698;28;20087;-76
2023/03/06 01:29:59;;;;;;;6.60;5.90;;;;;;;;;;5077729;28;20040;-76
2023/03/06 01:32:25;;;;;;;3.25;3.05;;;;;;;;;;5075648;28;20059;-75
2023/03/06 01:34:51;;;;;;;7.45;5.95;;;;;;;;;;5072606;28;20504;-76
2023/03/06 01:37:18;;;;;;;7.68;6.93;;;;;;;;;;5070417;28;20040;-77
2023/03/06 01:39:43;;;;;;;7.22;6.53;;;;;;;;;;5069705;28;20033;-77
2023/03/06 01:42:09;;;;;;;7.82;6.72;;;;;;;;;;5035892;28;20043;-77
2023/03/06 01:44:35;;;;;;;7.30;4.78;;;;;;;;;;5051649;28;20029;-75
2023/03/06 01:47:01;;;;;;;5.95;5.47;;;;;;;;;;5070272;28;20048;-75
2023/03/06 01:49:28;;;;;;;6.65;5.53;;;;;;;;;;5035250;28;20033;-76
2023/03/06 01:51:56;;;;;;;5.05;4.60;;;;;;;;;;5052618;28;20035;-76
2023/03/06 01:54:22;;;;;;;4.53;4.13;;;;;;;;;;5069736;28;20951;-76
2023/03/06 01:56:49;;;;;;;4.47;4.10;;;;;;;;;;5069863;28;20070;-76
2023/03/06 01:59:15;;;;;;;8.13;4.68;;;;;;;;;;5065098;28;20508;-76
2023/03/06 02:01:41;;;;;;;6.00;5.47;;;;;;;;;;5015654;28;20056;-76
2023/03/06 02:04:07;;;;;;;6.57;5.97;;;;;;;;;;5032008;28;20428;-77
2023/03/06 02:06:34;;;;;;;4.97;4.47;;;;;;;;;;5015511;28;20040;-75
2023/03/06 02:09:02;;;;;;;6.78;6.05;;;;;;;;;;5015729;28;20033;-76
2023/03/06 02:11:28;;;;;;;7.45;6.68;;;;;;;;;;5049478;28;20029;-77
2023/03/06 02:13:54;;;;;;;5.35;4.88;;;;;;;;;;5015363;28;20037;-76
2023/03/06 02:16:21;;;;;;;6.30;4.63;;;;;;;;;;5031549;28;20037;-77
2023/03/06 02:18:47;;;;;;;7.38;6.10;;;;;;;;;;5049410;28;20489;-76
2023/03/06 02:21:19;;;;;;;4.45;4.07;;;;;;;;;;5015718;28;20390;-76
2023/03/06 02:24:00;;;;;;;5.55;5.05;;;;;;;;;;5015814;28;20025;-77
2023/03/06 02:26:27;;;;;;;6.60;5.95;;;;;;;;;;5049526;28;20044;-77
2023/03/06 02:28:56;;;;;;;6.35;5.75;;;;;;;;;;5065076;28;20668;-77
2023/03/06 02:31:23;;;;;;;6.68;5.32;;;;;;;;;;5069351;28;20064;-76
2023/03/06 02:34:08;;;;;;;7.00;6.35;;;;;;;;;;5052659;28;20047;-76
2023/03/06 02:36:36;;;;;;;4.78;4.38;;;;;;;;;;5071664;28;20037;-76
2023/03/06 02:39:02;;;;;;;7.18;6.57;;;;;;;;;;5053578;28;20040;-77
2023/03/06 02:41:28;;;;;;;5.93;5.32;;;;;;;;;;5069322;28;20028;-76
2023/03/06 02:43:54;;;;;;;8.30;6.75;;;;;;;;;;5069373;28;20496;-77
2023/03/06 02:46:21;;;;;;;5.93;5.40;;;;;;;;;;5058717;28;20061;-77
2023/03/06 02:48:47;;;;;;;7.05;6.40;;;;;;;;;;5046614;28;20128;-77
2023/03/06 02:51:13;;;;;;;6.45;5.63;;;;;;;;;;5051942;28;20036;-77
2023/03/06 02:53:39;;;;;;;11.50;6.97;;;;;;;;;;5073182;28;20037;-78
2023/03/06 02:56:05;;;;;;;7.32;6.30;;;;;;;;;;5054156;28;20028;-77
2023/03/06 02:58:32;;;;;;;9.40;6.40;;;;;;;;;;5051569;28;20041;-76
2023/03/06 03:00:58;;;;;;;10.32;6.75;;;;;;;;;;5052116;28;20048;-76
2023/03/06 03:03:32;;;;;;;8.60;7.03;;;;;;;;;;5035116;28;20043;-76
2023/03/06 03:05:59;;;;;;;9.93;6.78;;;;;;;;;;5037912;28;20532;-77
2023/03/06 03:08:29;;;;;;;9.90;7.30;;;;;;;;;;5051577;28;20052;-77
2023/03/06 03:10:59;;;;;;;6.60;5.90;;;;;;;;;;5051997;28;20069;-77
2023/03/06 03:13:29;;;;;;;11.30;6.60;;;;;;;;;;5051549;28;20037;-77
2023/03/06 03:16:02;;;;;;;8.60;7.20;;;;;;;;;;5049823;28;20136;-77
2023/03/06 03:18:30;;;;;;;12.77;9.30;;;;;;;;;;5054835;28;20043;-77
2023/03/06 03:20:57;;;;;;;10.93;8.18;;;;;;;;;;5055420;28;20041;-78
2023/03/06 03:23:23;;;;;;;9.88;7.22;;;;;;;;;;5073643;28;20516;-76
2023/03/06 03:25:49;;;;;;;7.50;6.15;;;;;;;;;;5056303;28;20028;-77
2023/03/06 03:28:16;;;;;;;8.45;7.00;;;;;;;;;;5043688;28;20139;-77
2023/03/06 03:30:42;;;;;;;8.15;7.43;;;;;;;;;;5036699;28;20111;-76
2023/03/06 03:33:08;;;;;;;7.50;6.82;;;;;;;;;;5051558;28;20116;-75
2023/03/06 03:35:35;;;;;;;10.27;7.45;;;;;;;;;;5034562;28;20057;-76
2023/03/06 03:38:01;;;;;;;7.07;6.05;;;;;;;;;;5051302;28;20064;-77
2023/03/06 03:40:27;;;;;;;7.15;6.50;;;;;;;;;;5050846;28;20041;-77
2023/03/06 03:42:57;;;;;;;8.00;7.22;;;;;;;;;;5035398;28;20033;-77
2023/03/06 03:45:24;;;;;;;9.13;7.97;;;;;;;;;;5054747;28;20067;-78
2023/03/06 03:47:50;;;;;;;12.93;9.13;;;;;;;;;;5034320;28;20569;-76
2023/03/06 03:50:16;;;;;;;12.10;7.90;;;;;;;;;;5034285;28;20032;-74
2023/03/06 03:52:42;;;;;;;12.15;8.25;;;;;;;;;;5050747;28;20128;-75
2023/03/06 03:55:10;;;;;;;13.75;8.43;;;;;;;;;;5050505;28;20037;-75
2023/03/06 03:57:38;;;;;;;11.60;7.35;;;;;;;;;;5050114;28;20032;-70
2023/03/06 04:00:06;;;;;;;11.85;7.65;;;;;;;;;;5061402;28;20036;-70
2023/03/06 04:03:05;;;;;;;11.20;7.95;;;;;;;;;;5058596;28;20127;-70
2023/03/06 04:05:35;;;;;;;9.88;8.25;;;;;;;;;;5069653;28;20036;-69
2023/03/06 04:08:04;;;;;;;9.27;8.00;;;;;;;;;;5069928;28;20055;-68
2023/03/06 04:10:33;;;;;;;10.05;7.15;;;;;;;;;;5069731;28;20479;-69
2023/03/06 04:12:59;;;;;;;11.90;8.18;;;;;;;;;;5069808;28;20041;-71
2023/03/06 04:15:28;;;;;;;9.95;8.63;;;;;;;;;;5065639;28;20028;-70
2023/03/06 04:17:55;;;;;;;12.10;7.88;;;;;;;;;;5069752;28;20047;-70
2023/03/06 04:20:25;;;;;;;10.70;8.82;;;;;;;;;;5064895;28;20032;-69
2023/03/06 04:22:51;;;;;;;12.07;8.35;;;;;;;;;;5052532;28;20040;-69
2023/03/06 04:25:18;;;;;;;14.20;8.80;;;;;;;;;;5082479;28;20111;-71
2023/03/06 04:27:44;;;;;;;14.60;9.48;;;;;;;;;;5070633;28;20428;-70
2023/03/06 04:30:10;;;;;;;9.40;7.75;;;;;;;;;;5070592;28;20043;-70
2023/03/06 04:32:36;;;;;;;12.15;9.13;;;;;;;;;;5065632;28;20493;-70
2023/03/06 04:35:04;;;;;;;8.75;7.60;;;;;;;;;;5055126;28;20519;-70
2023/03/06 04:37:35;;;;;;;11.40;8.73;;;;;;;;;;5068539;28;20041;-70
2023/03/06 04:40:03;;;;;;;12.02;8.05;;;;;;;;;;5069313;28;20033;-70
2023/03/06 04:42:31;;;;;;;9.90;7.72;;;;;;;;;;5070126;28;20412;-71
2023/03/06 04:44:57;;;;;;;11.60;8.43;;;;;;;;;;5070101;28;20117;-69
2023/03/06 04:47:23;;;;;;;10.85;9.15;;;;;;;;;;5070078;28;20500;-71
2023/03/06 04:49:49;;;;;;;11.20;8.25;;;;;;;;;;5055524;28;20033;-71
2023/03/06 04:52:15;;;;;;;8.15;7.22;;;;;;;;;;5050201;28;20047;-71
2023/03/06 04:54:42;;;;;;;10.77;7.68;;;;;;;;;;5049910;28;20029;-71
2023/03/06 04:57:09;;;;;;;9.27;7.97;;;;;;;;;;5050379;28;20051;-70
2023/03/06 04:59:34;;;;;;;12.85;8.93;;;;;;;;;;5049984;28;20041;-71
2023/03/06 05:02:01;;;;;;;9.73;8.65;;;;;;;;;;5050072;28;20037;-71
2023/03/06 05:04:27;;;;;;;12.63;8.77;;;;;;;;;;5050017;28;20032;-70
2023/03/06 05:06:53;;;;;;;8.88;7.88;;;;;;;;;;5049924;28;20503;-71
2023/03/06 05:09:19;;;;;;;4.75;4.35;;;;;;;;;;5049904;28;20036;-70
2023/03/06 05:11:45;;;;;;;12.45;9.25;;;;;;;;;;5031931;28;20032;-71
2023/03/06 05:14:11;;;;;;;11.52;7.07;;;;;;;;;;5031758;28;20029;-71
2023/03/06 05:16:37;;;;;;;13.93;9.15;;;;;;;;;;5048854;28;20505;-70
2023/03/06 05:19:04;;;;;;;9.77;8.65;;;;;;;;;;5049803;28;20047;-71
2023/03/06 05:21:30;;;;;;;7.60;6.80;;;;;;;;;;5049556;28;20033;-71
2023/03/06 05:23:56;;;;;;;10.98;8.82;;;;;;;;;;5064156;28;20534;-71
2023/03/06 05:26:23;;;;;;;11.75;8.93;;;;;;;;;;5069789;28;20522;-69
2023/03/06 05:28:49;;;;;;;9.05;8.15;;;;;;;;;;5069375;28;20077;-71
2023/03/06 05:31:15;;;;;;;9.30;7.18;;;;;;;;;;5069501;28;20488;-71
2023/03/06 05:33:41;;;;;;;8.63;7.78;;;;;;;;;;5051226;28;20496;-72
2023/03/06 05:36:08;;;;;;;11.18;8.43;;;;;;;;;;5051551;28;20068;-71
2023/03/06 05:38:34;;;;;;;9.52;7.55;;;;;;;;;;5069267;28;20404;-70
2023/03/06 05:41:00;;;;;;;7.45;6.40;;;;;;;;;;5067008;28;20033;-78
2023/03/06 05:43:28;;;;;;;9.20;7.50;;;;;;;;;;5056313;28;20036;-78
2023/03/06 05:46:01;;;;;;;2.47;2.38;;;;;;;;;;5061914;28;20056;-79
2023/03/06 05:48:27;;;;;;;14.23;8.48;;;;;;;;;;5068730;28;20040;-75
2023/03/06 05:50:54;;;;;;;14.60;9.30;;;;;;;;;;5066958;28;20036;-78
2023/03/06 05:53:20;;;;;;;9.75;6.68;;;;;;;;;;5051282;28;20114;-76
2023/03/06 05:55:54;;;;;;;10.40;7.80;;;;;;;;;;5055206;28;20266;-79
2023/03/06 05:58:20;;;;;;;10.02;8.48;;;;;;;;;;5052859;28;20131;-82
2023/03/06 06:00:46;;;;;;;9.15;6.63;;;;;;;;;;5054097;28;20040;-79
2023/03/06 06:03:12;;;;;;;12.45;8.25;;;;;;;;;;5055675;28;20036;-80
2023/03/06 06:05:38;;;;;;;8.50;6.63;;;;;;;;;;5054933;28;20100;-81
2023/03/06 06:08:05;;;;;;;4.55;3.88;;;;;;;;;;5054661;28;20061;-82
2023/03/06 06:10:30;;;;;;;11.00;5.63;;;;;;;;;;5045168;28;20136;-78
2023/03/06 06:12:59;;;;;;;13.55;8.57;;;;;;;;;;5047545;28;20029;-76
2023/03/06 06:15:27;;;;;;;13.98;9.05;;;;;;;;;;5032540;28;20513;-77
2023/03/06 06:17:54;;;;;;;8.48;7.28;;;;;;;;;;5030798;28;20064;-78
2023/03/06 06:20:20;;;;;;;6.15;5.55;;;;;;;;;;5047818;28;20025;-79
2023/03/06 06:22:46;;;;;;;5.38;4.90;;;;;;;;;;5048641;28;20592;-79
2023/03/06 06:25:12;;;;;;;5.05;4.55;;;;;;;;;;5048562;28;20071;-76
2023/03/06 06:27:40;;;;;;;3.97;3.67;;;;;;;;;;5048274;28;20068;-77
2023/03/06 06:30:06;;;;;;;5.13;4.70;;;;;;;;;;5030877;28;20411;-76
2023/03/06 06:32:32;;;;;;;3.42;3.08;;;;;;;;;;5048397;28;20036;-76
2023/03/06 06:34:58;;;;;;;3.72;3.42;;;;;;;;;;5049317;28;20082;-77
2023/03/06 06:37:25;;;;;;;4.43;4.13;;;;;;;;;;5048559;28;20033;-77
2023/03/06 06:39:50;;;;;;;5.00;4.38;;;;;;;;;;5062481;28;20032;-76
2023/03/06 06:42:17;;;;;;;6.28;3.53;;;;;;;;;;5063648;28;20816;-76
2023/03/06 06:44:43;;;;;;;4.18;3.78;;;;;;;;;;5077659;28;20564;-75
2023/03/06 06:47:09;;;;;;;4.47;3.42;;;;;;;;;;5033054;28;20040;-75
2023/03/06 06:49:35;;;;;;;5.68;4.53;;;;;;;;;;5060432;28;20060;-76
2023/03/06 06:52:01;;;;;;;5.18;4.68;;;;;;;;;;5030162;28;20036;-77
2023/03/06 06:54:27;;;;;;;5.93;5.18;;;;;;;;;;5047934;28;20037;-75
2023/03/06 06:56:53;;;;;;;5.18;4.78;;;;;;;;;;5047225;28;20033;-78
2023/03/06 06:59:19;;;;;;;7.70;3.75;;;;;;;;;;5065906;28;20037;-79
2023/03/06 07:01:45;;;;;;;6.97;5.10;;;;;;;;;;5064702;28;20036;-81
2023/03/06 07:04:11;;;;;;;5.70;5.30;;;;;;;;;;5068286;28;20575;-77
2023/03/06 07:06:38;;;;;;;7.20;5.25;;;;;;;;;;5067941;28;20071;-77
2023/03/06 07:09:04;;;;;;;9.55;8.15;;;;;;;;;;5054100;28;20040;-77
2023/03/06 07:11:30;;;;;;;7.53;5.47;;;;;;;;;;5062186;28;20036;-78
2023/03/06 07:13:56;;;;;;;7.07;5.45;;;;;;;;;;5048209;28;20032;-78
2023/03/06 07:16:22;;;;;;;7.35;5.43;;;;;;;;;;5066092;28;20497;-76
2023/03/06 07:18:49;;;;;;;3.88;3.63;;;;;;;;;;5047979;28;20130;-77
2023/03/06 07:21:17;;;;;;;4.53;4.13;;;;;;;;;;5067398;28;20036;-78
2023/03/06 07:23:43;;;;;;;8.15;4.60;;;;;;;;;;5033589;28;20035;-81
2023/03/06 07:26:09;;;;;;;4.38;4.07;;;;;;;;;;5050227;28;20024;-78
2023/03/06 07:28:35;;;;;;;4.13;3.83;;;;;;;;;;5069298;28;20055;-80
2023/03/06 07:31:01;;;;;;;4.82;4.13;;;;;;;;;;5068987;28;20029;-81
2023/03/06 07:33:27;;;;;;;4.35;3.97;;;;;;;;;;5040235;28;20053;-79
2023/03/06 07:35:53;;;;;;;3.05;2.85;;;;;;;;;;5051357;28;20546;-79
2023/03/06 07:38:19;;;;;;;5.18;4.70;;;;;;;;;;5020513;28;20116;-78
2023/03/06 07:40:48;;;;;;;5.35;4.90;;;;;;;;;;5071820;28;20044;-80
2023/03/06 07:43:14;;;;;;;3.72;3.40;;;;;;;;;;5070728;28;20033;-79
2023/03/06 07:45:45;;;;;;;5.13;4.65;;;;;;;;;;5057266;28;20059;-80
2023/03/06 07:48:12;;;;;;;4.47;4.18;;;;;;;;;;5063499;28;20079;-81
2023/03/06 07:50:38;;;;;;;4.20;3.88;;;;;;;;;;5038973;28;20033;-81
2023/03/06 07:53:05;;;;;;;7.65;3.80;;;;;;;;;;5058332;28;20088;-80
2023/03/06 07:55:31;;;;;;;2.65;2.47;;;;;;;;;;5057116;28;20033;-81
2023/03/06 07:57:57;;;;;;;3.03;2.83;;;;;;;;;;5056800;28;20033;-82
2023/03/06 08:00:22;;;;;;;3.65;3.38;;;;;;;;;;5053817;28;20099;-76
2023/03/06 08:02:48;;;;;;;3.40;3.20;;;;;;;;;;5054080;28;20071;-78
2023/03/06 08:05:15;;;;;;;2.58;1.98;;;;;;;;;;5056141;28;20040;-78
2023/03/06 08:07:44;;;;;;;3.80;3.50;;;;;;;;;;5054182;28;20520;-78
2023/03/06 08:10:11;;;;;;;1.92;1.83;;;;;;;;;;5027019;28;20036;-77
2023/03/06 08:12:38;;;;;;;3.47;3.17;;;;;;;;;;5061710;28;20066;-76
2023/03/06 08:15:04;;;;;;;2.67;2.55;;;;;;;;;;5055738;28;20092;-76
2023/03/06 08:17:30;;;;;;;3.75;3.40;;;;;;;;;;5059700;28;20536;-76
2023/03/06 08:19:56;;;;;;;3.53;2.83;;;;;;;;;;5060466;28;20036;-75
2023/03/06 08:22:22;;;;;;;3.35;3.15;;;;;;;;;;5072916;28;20223;-76
2023/03/06 08:24:48;;;;;;;3.13;2.92;;;;;;;;;;5070693;28;20036;-77
2023/03/06 08:27:14;;;;;;;3.17;2.88;;;;;;;;;;5071165;28;20044;-78
2023/03/06 08:29:40;;;;;;;3.13;2.80;;;;;;;;;;5070946;28;20041;-77
2023/03/06 08:32:09;;;;;;;2.08;1.98;;;;;;;;;;5048937;28;20064;-77
2023/03/06 08:34:38;;;;;;;2.03;1.92;;;;;;;;;;5070000;28;20216;-76
2023/03/06 08:37:04;;;;;;;2.80;2.63;;;;;;;;;;5086318;28;20033;-77
2023/03/06 08:39:30;;;;;;;2.30;2.20;;;;;;;;;;5054360;28;20386;-78
2023/03/06 08:41:56;;;;;;;1.70;1.70;;;;;;;;;;5049290;28;20501;-76
2023/03/06 08:44:22;;;;;;;2.28;2.10;;;;;;;;;;5049910;28;20062;-76
2023/03/06 08:46:48;;;;;;;2.17;2.08;;;;;;;;;;5049993;28;20049;-81
2023/03/06 08:49:14;;;;;;;1.30;1.30;;;;;;;;;;5048462;28;20493;-76
2023/03/06 08:51:41;;;;;;;1.55;1.55;;;;;;;;;;5054842;28;20029;-80
2023/03/06 08:54:07;;;;;;;1.70;1.70;;;;;;;;;;5050421;28;20037;-77
2023/03/06 08:56:33;;;;;;;1.70;1.65;;;;;;;;;;5050126;28;20065;-77
2023/03/06 08:59:00;;;;;;;1.25;1.25;;;;;;;;;;5063665;28;20531;-75
2023/03/06 09:01:26;;;;;;;1.52;1.42;;;;;;;;;;5069590;28;20032;-75
2023/03/06 09:03:55;;;;;;;5.47;2.25;;;;;;;;;;5068879;28;20040;-76
2023/03/06 09:06:21;;;;;;;2.30;2.20;;;;;;;;;;5069661;28;20497;-77
2023/03/06 09:08:50;;;;;;;2.22;2.13;;;;;;;;;;5069435;28;20042;-75
2023/03/06 09:11:16;;;;;;;2.22;2.13;;;;;;;;;;5066995;28;20037;-77
2023/03/06 09:13:43;;;;;;;3.97;1.88;;;;;;;;;;5033337;28;20025;-77
2023/03/06 09:16:09;;;;;;;2.20;2.00;;;;;;;;;;5053710;28;20509;-78
2023/03/06 09:18:35;;;;;;;2.55;2.35;;;;;;;;;;5053401;28;20524;-82
2023/03/06 09:21:02;;;;;;;3.53;2.15;;;;;;;;;;5054838;28;20121;-81
2023/03/06 09:23:29;;;;;;;3.13;2.17;;;;;;;;;;5054767;28;20416;-80
2023/03/06 09:25:56;;;;;;;3.00;2.78;;;;;;;;;;5054173;28;20032;-79
2023/03/06 09:28:22;;;;;;;2.92;2.72;;;;;;;;;;5071929;28;20040;-79
2023/03/06 09:30:48;;;;;;;2.72;2.53;;;;;;;;;;5069497;28;20024;-79
2023/03/06 09:33:14;;;;;;;2.50;2.30;;;;;;;;;;5066463;28;20132;-79
2023/03/06 09:35:49;;;;;;;2.13;2.03;;;;;;;;;;5057017;28;20115;-79
2023/03/06 09:38:16;;;;;;;1.88;1.67;;;;;;;;;;5044043;28;20040;-76
2023/03/06 09:40:42;;;;;;;1.80;1.70;;;;;;;;;;5061830;28;20622;-75
2023/03/06 09:43:12;;;;;;;1.45;1.45;;;;;;;;;;5060677;28;20025;-77
2023/03/06 09:45:38;;;;;;;1.58;1.58;;;;;;;;;;5062490;28;20140;-78
2023/03/06 09:48:05;;;;;;;2.38;2.28;;;;;;;;;;5047774;28;20572;-78
2023/03/06 09:50:36;;;;;;;1.90;1.80;;;;;;;;;;5058302;28;20077;-80
2023/03/06 09:53:02;;;;;;;;;;;;;;;;;;5071513;28;20042;-80
2023/03/06 09:55:32;;;;;;;3.15;2.95;;;;;;;;;;5069587;28;19912;-78
2023/03/06 09:58:17;;;;;;;2.78;2.50;;;;;;;;;;5067917;28;20074;-78
2023/03/06 10:00:55;;;;;;;1.85;1.75;;;;;;;;;;5050416;28;20726;-77
2023/03/06 10:03:24;;;;;;;2.00;1.90;;;;;;;;;;5068764;28;20628;-78
2023/03/06 10:05:52;;;;;;;2.30;2.20;;;;;;;;;;5067558;28;20033;-78
2023/03/06 10:08:29;;;;;;;2.08;1.98;;;;;;;;;;5070861;28;20131;-81
2023/03/06 10:10:58;;;;;;;1.75;1.70;;;;;;;;;;5048619;28;20098;-79
2023/03/06 10:13:25;;;;;;;2.03;1.92;;;;;;;;;;5049026;28;20127;-79
2023/03/06 10:15:52;;;;;;;2.45;2.33;;;;;;;;;;5048314;28;20048;-79
2023/03/06 10:18:18;;;;;;;2.60;2.50;;;;;;;;;;5067664;28;20086;-79
2023/03/06 10:20:56;;;;;;;2.60;2.40;;;;;;;;;;5070726;28;20037;-79
2023/03/06 10:23:41;;;;;;;1.73;1.73;;;;;;;;;;5068019;28;20036;-79
2023/03/06 10:26:10;;;;;;;2.40;2.20;;;;;;;;;;5068606;28;20036;-78
2023/03/06 10:28:45;;;;;;;2.55;2.35;;;;;;;;;;5068454;28;20040;-80
2023/03/06 10:31:15;;;;;;;3.17;2.88;;;;;;;;;;5072241;28;20043;-80
2023/03/06 10:33:44;;;;;;;2.22;2.03;;;;;;;;;;5072223;28;20044;-80
2023/03/06 10:36:16;;;;;;;2.50;2.40;;;;;;;;;;5086074;28;20040;-80
2023/03/06 10:38:43;;;;;;;2.65;2.47;;;;;;;;;;5068604;28;20404;-79
2023/03/06 10:41:09;;;;;;;1.67;1.58;;;;;;;;;;5068357;28;20021;-81
2023/03/06 10:43:36;;;;;;;4.40;2.75;;;;;;;;;;5069572;28;20056;-81
2023/03/06 10:46:02;;;;;;;2.00;1.90;;;;;;;;;;5068559;28;20083;-79
2023/03/06 10:48:28;;;;;;;2.20;2.10;;;;;;;;;;5069930;28;20049;-79
2023/03/06 10:51:13;;;;;;;2.92;1.85;;;;;;;;;;5070079;28;20032;-79
2023/03/06 10:53:59;;;;;;;1.98;1.88;;;;;;;;;;5054027;28;20182;-79
2023/03/06 10:56:32;;;;;;;3.95;2.08;;;;;;;;;;5050674;28;20029;-81
2023/03/06 10:59:04;;;;;;;2.15;2.05;;;;;;;;;;5050171;28;20572;-80
2023/03/06 11:01:30;;;;;;;2.33;2.20;;;;;;;;;;5050758;28;20033;-80
2023/03/06 11:04:16;;;;;;;3.67;2.58;;;;;;;;;;5016013;28;20428;-80
2023/03/06 11:06:43;;;;;;;2.85;2.70;;;;;;;;;;5056715;28;20044;-77
2023/03/06 11:09:18;;;;;;;3.83;2.50;;;;;;;;;;5049261;28;20082;-76
2023/03/06 11:11:44;;;;;;;2.60;2.40;;;;;;;;;;5049684;28;20029;-82
2023/03/06 11:14:17;;;;;;;2.78;2.65;;;;;;;;;;5062616;28;20031;-82
2023/03/06 11:16:51;;;;;;;1.60;1.60;;;;;;;;;;5079316;28;20056;-82
2023/03/06 11:19:26;;;;;;;1.95;1.85;;;;;;;;;;5054393;28;20029;-78
2023/03/06 11:22:05;;;;;;;2.25;2.03;;;;;;;;;;5054272;28;20112;-78
2023/03/06 11:24:34;;;;;;;2.75;2.47;;;;;;;;;;5069891;28;20036;-80
2023/03/06 11:27:01;;;;;;;2.13;2.03;;;;;;;;;;5054209;28;20048;-78
2023/03/06 11:29:47;;;;;;;1.98;1.88;;;;;;;;;;5071775;28;20449;-82
2023/03/06 11:32:28;;;;;;;2.83;2.63;;;;;;;;;;5071745;28;20047;-76
2023/03/06 11:35:02;;;;;;;2.67;2.47;;;;;;;;;;5050412;28;20035;-79
2023/03/06 11:37:45;;;;;;;2.78;2.28;;;;;;;;;;5048565;28;20036;-79
2023/03/06 11:40:11;;;;;;;3.67;2.10;;;;;;;;;;5046197;28;20032;-81
2023/03/06 11:42:52;;;;;;;2.20;2.10;;;;;;;;;;5072131;28;20037;-77
2023/03/06 11:45:18;;;;;;;2.72;2.53;;;;;;;;;;5039961;28;20052;-77
2023/03/06 11:47:44;;;;;;;2.72;2.05;;;;;;;;;;5071953;28;20129;-78
2023/03/06 11:50:18;;;;;;;1.95;1.85;;;;;;;;;;5069937;28;20527;-79
2023/03/06 11:52:45;;;;;;;1.75;1.65;;;;;;;;;;5065007;28;20299;-79
2023/03/06 11:55:12;;;;;;;2.08;1.98;;;;;;;;;;5072670;28;20035;-79
2023/03/06 11:57:42;;;;;;;2.30;2.10;;;;;;;;;;5043843;28;20091;-79
2023/03/06 12:00:16;;;;;;;2.17;2.08;;;;;;;;;;5068860;28;20033;-79
2023/03/06 12:02:45;;;;;;;2.10;2.00;;;;;;;;;;5069236;28;20468;-80
2023/03/06 12:05:20;;;;;;;2.20;2.10;;;;;;;;;;5054371;28;20035;-81
2023/03/06 12:07:54;;;;;;;2.33;2.22;;;;;;;;;;5056210;28;20091;-80
2023/03/06 12:10:22;;;;;;;2.60;2.40;;;;;;;;;;5077578;28;20543;-80
2023/03/06 12:13:09;;;;;;;2.53;2.13;;;;;;;;;;5072355;28;20555;-81
2023/03/06 12:15:35;;;;;;;1.80;1.75;;;;;;;;;;5059311;28;20025;-80
2023/03/06 12:18:08;;;;;;;2.90;2.25;;;;;;;;;;5057343;28;20041;-78
2023/03/06 12:20:34;;;;;;;2.38;2.28;;;;;;;;;;5066221;28;20033;-81
2023/03/06 12:23:12;;;;;;;3.60;2.90;;;;;;;;;;5060355;28;20098;-81
2023/03/06 12:25:39;;;;;;;2.47;2.08;;;;;;;;;;5049595;28;20036;-78
2023/03/06 12:28:24;;;;;;;2.15;2.05;;;;;;;;;;5051440;28;20051;-80
2023/03/06 12:31:09;;;;;;;2.70;2.47;;;;;;;;;;5057013;28;20170;-78
2023/03/06 12:33:41;;;;;;;2.53;2.33;;;;;;;;;;5048654;28;20508;-82
2023/03/06 12:36:13;;;;;;;2.53;2.33;;;;;;;;;;5080015;28;20033;-81
2023/03/06 12:38:39;;;;;;;3.33;2.40;;;;;;;;;;5076579;28;20093;-80
2023/03/06 12:41:15;;;;;;;2.05;1.95;;;;;;;;;;5062986;28;20055;-81
2023/03/06 12:43:49;;;;;;;2.58;2.38;;;;;;;;;;5076850;28;20093;-80
2023/03/06 12:46:15;;;;;;;2.42;2.20;;;;;;;;;;5072421;28;20075;-80
2023/03/06 12:48:42;;;;;;;2.00;1.90;;;;;;;;;;5040087;28;20190;-80
2023/03/06 12:51:09;;;;;;;2.50;1.98;;;;;;;;;;5077185;28;20035;-78
2023/03/06 12:53:35;;;;;;;1.95;1.88;;;;;;;;;;5033376;28;20084;-81
2023/03/06 12:56:01;;;;;;;1.80;1.70;;;;;;;;;;5053877;28;20606;-79
2023/03/06 12:58:31;;;;;;;2.20;2.10;;;;;;;;;;5042457;28;20029;-80
2023/03/06 13:00:58;;;;;;;2.30;2.20;;;;;;;;;;5053340;28;20033;-80
2023/03/06 13:03:24;;;;;;;2.53;2.33;;;;;;;;;;5048462;28;20629;-80
2023/03/06 13:06:17;;;;;;;2.13;2.03;;;;;;;;;;5063090;28;20041;-81
2023/03/06 13:08:46;;;;;;;2.42;2.20;;;;;;;;;;5055945;28;20044;-82
2023/03/06 13:11:24;;;;;;;4.60;2.65;;;;;;;;;;5060962;28;20045;-80
2023/03/06 13:13:50;;;;;;;2.85;2.60;;;;;;;;;;5069552;28;20107;-80
2023/03/06 13:16:19;;;;;;;3.00;2.80;;;;;;;;;;5059952;28;20068;-80
2023/03/06 13:18:49;;;;;;;2.15;2.05;;;;;;;;;;5064577;28;20036;-84
2023/03/06 13:21:34;;;;;;;2.72;2.53;;;;;;;;;;5073540;28;20029;-82
2023/03/06 13:24:03;;;;;;;2.85;2.65;;;;;;;;;;5075076;28;20040;-82
2023/03/06 13:26:29;;;;;;;2.67;2.47;;;;;;;;;;5072128;28;20054;-84
2023/03/06 13:28:56;;;;;;;2.90;2.70;;;;;;;;;;5066006;28;20090;-81
2023/03/06 13:31:26;;;;;;;2.80;2.60;;;;;;;;;;5054276;28;20531;-80
2023/03/06 13:33:53;;;;;;;6.05;3.25;;;;;;;;;;5059382;28;20504;-78
2023/03/06 13:36:26;;;;;;;2.55;2.35;;;;;;;;;;5056976;28;20033;-77
2023/03/06 13:38:53;;;;;;;2.83;2.60;;;;;;;;;;5057126;28;20526;-80
2023/03/06 13:41:20;;;;;;;2.70;2.47;;;;;;;;;;5073899;28;20100;-83
2023/03/06 13:43:46;;;;;;;2.35;2.25;;;;;;;;;;5089622;28;20032;-83
2023/03/06 13:46:23;;;;;;;2.03;1.92;;;;;;;;;;5069924;28;20052;-83
2023/03/06 13:49:02;;;;;;;1.65;1.65;;;;;;;;;;5085972;28;20045;-82
2023/03/06 13:51:30;;;;;;;2.17;2.08;;;;;;;;;;5085020;28;20032;-80
2023/03/06 13:54:15;;;;;;;2.13;2.03;;;;;;;;;;5070596;28;20425;-80
2023/03/06 13:56:44;;;;;;;3.92;3.60;;;;;;;;;;5066903;28;20028;-79
2023/03/06 13:59:13;;;;;;;2.42;2.22;;;;;;;;;;5065149;28;20037;-80
2023/03/06 14:01:55;;;;;;;2.05;1.90;;;;;;;;;;5065483;28;20048;-79
2023/03/06 14:04:29;;;;;;;1.98;1.88;;;;;;;;;;5067742;28;20044;-81
2023/03/06 14:06:58;;;;;;;1.23;1.23;;;;;;;;;;5079191;28;20039;-80
2023/03/06 14:09:28;;;;;;;2.92;2.72;;;;;;;;;;5072283;28;20059;-81
2023/03/06 14:11:56;;;;;;;3.90;2.88;;;;;;;;;;5063695;28;20115;-80
2023/03/06 14:14:26;;;;;;;4.97;3.67;;;;;;;;;;5059006;28;20032;-81
2023/03/06 14:16:52;;;;;;;6.10;4.70;;;;;;;;;;5076125;28;20092;-81
2023/03/06 14:19:18;;;;;;;5.40;3.53;;;;;;;;;;5079039;28;20079;-81
2023/03/06 14:21:44;;;;;;;3.63;3.33;;;;;;;;;;5080058;28;20101;-82
2023/03/06 14:24:13;;;;;;;4.47;3.08;;;;;;;;;;5082060;28;20482;-81
2023/03/06 14:26:40;;;;;;;3.05;2.85;;;;;;;;;;5074856;28;20123;-82
2023/03/06 14:29:17;;;;;;;2.55;2.30;;;;;;;;;;5063676;28;20032;-78
2023/03/06 14:31:43;;;;;;;4.65;4.25;;;;;;;;;;5051944;28;20086;-80
2023/03/06 14:34:20;;;;;;;3.15;2.85;;;;;;;;;;5067278;28;20039;-82
2023/03/06 14:36:46;;;;;;;4.05;3.65;;;;;;;;;;5079040;28;20024;-83
2023/03/06 14:39:23;;;;;;;2.58;2.13;;;;;;;;;;5056859;28;20063;-81
2023/03/06 14:41:49;;;;;;;3.65;3.38;;;;;;;;;;5056584;28;20072;-81
2023/03/06 14:44:20;;;;;;;2.70;2.50;;;;;;;;;;5056922;28;20044;-82
2023/03/06 14:46:55;;;;;;;7.55;3.80;;;;;;;;;;5070605;28;20040;-81
2023/03/06 14:49:22;;;;;;;2.70;2.50;;;;;;;;;;5079945;28;20060;-80